sensor_id;sensor_type;location;lat;lon;timestamp;temperature;humidity
62464;SHT31;48512;48.552;9.380;2024-01-30T00:00:01;3.74;78.27
62464;SHT31;48512;48.552;9.380;2024-01-30T00:02:27;3.68;78.25
62464;SHT31;48512;48.552;9.380;2024-01-30T00:04:53;3.62;78.33
62464;SHT31;48512;48.552;9.380;2024-01-30T00:07:19;3.55;78.59
62464;SHT31;48512;48.552;9.380;2024-01-30T00:09:47;3.34;78.89
62464;SHT31;48512;48.552;9.380;2024-01-30T00:12:14;3.18;79.24
62464;SHT31;48512;48.552;9.380;2024-01-30T00:14:43;3.03;79.71
62464;SHT31;48512;48.552;9.380;2024-01-30T00:17:11;2.85;80.08
62464;SHT31;48512;48.552;9.380;2024-01-30T00:19:37;2.75;80.33
62464;SHT31;48512;48.552;9.380;2024-01-30T00:22:04;2.66;80.74
62464;SHT31;48512;48.552;9.380;2024-01-30T00:24:30;2.63;80.98
62464;SHT31;48512;48.552;9.380;2024-01-30T00:26:56;2.61;81.00
62464;SHT31;48512;48.552;9.380;2024-01-30T00:29:22;2.55;81.14
62464;SHT31;48512;48.552;9.380;2024-01-30T00:31:49;2.48;81.44
62464;SHT31;48512;48.552;9.380;2024-01-30T00:34:15;2.44;81.70
62464;SHT31;48512;48.552;9.380;2024-01-30T00:36:41;2.40;81.80
62464;SHT31;48512;48.552;9.380;2024-01-30T00:39:07;2.35;82.06
62464;SHT31;48512;48.552;9.380;2024-01-30T00:41:35;2.30;82.14
62464;SHT31;48512;48.552;9.380;2024-01-30T00:44:01;2.17;82.55
62464;SHT31;48512;48.552;9.380;2024-01-30T00:46:27;2.15;82.73
62464;SHT31;48512;48.552;9.380;2024-01-30T00:48:53;2.07;82.93
62464;SHT31;48512;48.552;9.380;2024-01-30T00:51:19;2.02;82.95
62464;SHT31;48512;48.552;9.380;2024-01-30T00:53:45;1.96;83.40
62464;SHT31;48512;48.552;9.380;2024-01-30T00:56:11;1.89;83.52
62464;SHT31;48512;48.552;9.380;2024-01-30T00:58:37;1.93;83.52
62464;SHT31;48512;48.552;9.380;2024-01-30T01:01:04;1.99;83.33
62464;SHT31;48512;48.552;9.380;2024-01-30T01:03:30;2.03;83.26
62464;SHT31;48512;48.552;9.380;2024-01-30T01:05:56;2.02;83.45
62464;SHT31;48512;48.552;9.380;2024-01-30T01:08:22;2.04;83.25
62464;SHT31;48512;48.552;9.380;2024-01-30T01:10:48;2.15;83.36
62464;SHT31;48512;48.552;9.380;2024-01-30T01:13:14;2.14;83.46
62464;SHT31;48512;48.552;9.380;2024-01-30T01:15:40;2.17;83.52
62464;SHT31;48512;48.552;9.380;2024-01-30T01:18:06;2.18;83.27
62464;SHT31;48512;48.552;9.380;2024-01-30T01:20:32;2.22;83.03
62464;SHT31;48512;48.552;9.380;2024-01-30T01:22:59;2.22;83.18
62464;SHT31;48512;48.552;9.380;2024-01-30T01:25:25;2.22;83.10
62464;SHT31;48512;48.552;9.380;2024-01-30T01:27:51;2.28;82.99
62464;SHT31;48512;48.552;9.380;2024-01-30T01:30:18;2.35;82.91
62464;SHT31;48512;48.552;9.380;2024-01-30T01:32:50;2.34;82.85
62464;SHT31;48512;48.552;9.380;2024-01-30T01:35:24;2.30;83.10
62464;SHT31;48512;48.552;9.380;2024-01-30T01:37:53;2.17;83.36
62464;SHT31;48512;48.552;9.380;2024-01-30T01:40:24;2.07;83.74
62464;SHT31;48512;48.552;9.380;2024-01-30T01:42:51;2.03;83.93
62464;SHT31;48512;48.552;9.380;2024-01-30T01:45:19;1.89;84.42
62464;SHT31;48512;48.552;9.380;2024-01-30T01:47:47;1.77;84.83
62464;SHT31;48512;48.552;9.380;2024-01-30T01:50:17;1.79;84.89
62464;SHT31;48512;48.552;9.380;2024-01-30T01:52:50;1.75;85.22
62464;SHT31;48512;48.552;9.380;2024-01-30T01:55:20;1.67;85.56
62464;SHT31;48512;48.552;9.380;2024-01-30T01:57:52;1.65;85.71
62464;SHT31;48512;48.552;9.380;2024-01-30T02:00:19;1.63;85.85
62464;SHT31;48512;48.552;9.380;2024-01-30T02:02:46;1.65;85.92
62464;SHT31;48512;48.552;9.380;2024-01-30T02:05:13;1.70;85.69
62464;SHT31;48512;48.552;9.380;2024-01-30T02:07:40;1.73;85.64
62464;SHT31;48512;48.552;9.380;2024-01-30T02:10:08;1.77;85.57
62464;SHT31;48512;48.552;9.380;2024-01-30T02:12:35;1.79;85.54
62464;SHT31;48512;48.552;9.380;2024-01-30T02:15:01;1.87;85.49
62464;SHT31;48512;48.552;9.380;2024-01-30T02:17:27;1.92;85.25
62464;SHT31;48512;48.552;9.380;2024-01-30T02:19:53;1.97;85.10
62464;SHT31;48512;48.552;9.380;2024-01-30T02:22:20;2.02;85.07
62464;SHT31;48512;48.552;9.380;2024-01-30T02:24:46;2.02;84.97
62464;SHT31;48512;48.552;9.380;2024-01-30T02:27:12;1.99;85.06
62464;SHT31;48512;48.552;9.380;2024-01-30T02:29:38;2.07;84.97
62464;SHT31;48512;48.552;9.380;2024-01-30T02:32:05;2.04;84.77
62464;SHT31;48512;48.552;9.380;2024-01-30T02:34:32;2.07;84.57
62464;SHT31;48512;48.552;9.380;2024-01-30T02:36:58;2.10;84.51
62464;SHT31;48512;48.552;9.380;2024-01-30T02:39:24;2.10;84.62
62464;SHT31;48512;48.552;9.380;2024-01-30T02:41:50;2.10;84.57
62464;SHT31;48512;48.552;9.380;2024-01-30T02:44:16;2.14;84.45
62464;SHT31;48512;48.552;9.380;2024-01-30T02:46:42;2.09;84.49
62464;SHT31;48512;48.552;9.380;2024-01-30T02:49:08;2.04;84.79
62464;SHT31;48512;48.552;9.380;2024-01-30T02:51:34;1.97;85.28
62464;SHT31;48512;48.552;9.380;2024-01-30T02:54:00;1.93;85.28
62464;SHT31;48512;48.552;9.380;2024-01-30T02:56:26;1.86;85.33
62464;SHT31;48512;48.552;9.380;2024-01-30T02:58:52;1.77;85.60
62464;SHT31;48512;48.552;9.380;2024-01-30T03:01:20;1.72;85.92
62464;SHT31;48512;48.552;9.380;2024-01-30T03:03:46;1.67;86.08
62464;SHT31;48512;48.552;9.380;2024-01-30T03:06:12;1.58;86.29
62464;SHT31;48512;48.552;9.380;2024-01-30T03:08:39;1.54;86.51
62464;SHT31;48512;48.552;9.380;2024-01-30T03:11:05;1.51;86.53
62464;SHT31;48512;48.552;9.380;2024-01-30T03:13:31;1.49;86.67
62464;SHT31;48512;48.552;9.380;2024-01-30T03:15:57;1.48;86.59
62464;SHT31;48512;48.552;9.380;2024-01-30T03:18:23;1.46;86.72
62464;SHT31;48512;48.552;9.380;2024-01-30T03:20:49;1.46;86.73
62464;SHT31;48512;48.552;9.380;2024-01-30T03:23:16;1.49;86.51
62464;SHT31;48512;48.552;9.380;2024-01-30T03:25:42;1.51;86.53
62464;SHT31;48512;48.552;9.380;2024-01-30T03:28:08;1.52;86.34
62464;SHT31;48512;48.552;9.380;2024-01-30T03:30:34;1.56;86.40
62464;SHT31;48512;48.552;9.380;2024-01-30T03:33:00;1.62;86.12
62464;SHT31;48512;48.552;9.380;2024-01-30T03:35:27;1.67;85.98
62464;SHT31;48512;48.552;9.380;2024-01-30T03:37:53;1.72;85.67
62464;SHT31;48512;48.552;9.380;2024-01-30T03:40:19;1.76;85.47
62464;SHT31;48512;48.552;9.380;2024-01-30T03:42:45;1.77;85.42
62464;SHT31;48512;48.552;9.380;2024-01-30T03:45:11;1.80;85.40
62464;SHT31;48512;48.552;9.380;2024-01-30T03:47:37;1.77;85.31
62464;SHT31;48512;48.552;9.380;2024-01-30T03:50:03;1.73;85.30
62464;SHT31;48512;48.552;9.380;2024-01-30T03:52:30;1.73;85.26
62464;SHT31;48512;48.552;9.380;2024-01-30T03:54:56;1.62;85.35
62464;SHT31;48512;48.552;9.380;2024-01-30T03:57:22;1.60;85.46
62464;SHT31;48512;48.552;9.380;2024-01-30T03:59:49;1.49;85.71
62464;SHT31;48512;48.552;9.380;2024-01-30T04:02:15;1.44;85.73
62464;SHT31;48512;48.552;9.380;2024-01-30T04:04:41;1.39;85.75
62464;SHT31;48512;48.552;9.380;2024-01-30T04:07:07;1.36;85.83
62464;SHT31;48512;48.552;9.380;2024-01-30T04:09:33;1.34;85.86
62464;SHT31;48512;48.552;9.380;2024-01-30T04:11:59;1.25;85.94
62464;SHT31;48512;48.552;9.380;2024-01-30T04:14:25;1.25;86.03
62464;SHT31;48512;48.552;9.380;2024-01-30T04:16:51;1.27;86.07
62464;SHT31;48512;48.552;9.380;2024-01-30T04:19:17;1.24;85.96
62464;SHT31;48512;48.552;9.380;2024-01-30T04:21:44;1.25;85.92
62464;SHT31;48512;48.552;9.380;2024-01-30T04:24:10;1.27;85.78
62464;SHT31;48512;48.552;9.380;2024-01-30T04:26:36;1.30;85.54
62464;SHT31;48512;48.552;9.380;2024-01-30T04:29:02;1.25;85.56
62464;SHT31;48512;48.552;9.380;2024-01-30T04:31:28;1.27;85.51
62464;SHT31;48512;48.552;9.380;2024-01-30T04:33:54;1.24;85.47
62464;SHT31;48512;48.552;9.380;2024-01-30T04:36:20;1.18;85.68
62464;SHT31;48512;48.552;9.380;2024-01-30T04:38:46;1.09;85.83
62464;SHT31;48512;48.552;9.380;2024-01-30T04:41:13;1.09;85.87
62464;SHT31;48512;48.552;9.380;2024-01-30T04:43:39;0.96;86.08
62464;SHT31;48512;48.552;9.380;2024-01-30T04:46:05;0.91;86.24
62464;SHT31;48512;48.552;9.380;2024-01-30T04:48:31;0.81;86.37
62464;SHT31;48512;48.552;9.380;2024-01-30T04:50:58;0.81;86.68
62464;SHT31;48512;48.552;9.380;2024-01-30T04:53:24;0.79;86.64
62464;SHT31;48512;48.552;9.380;2024-01-30T04:55:50;0.80;86.94
62464;SHT31;48512;48.552;9.380;2024-01-30T04:58:16;0.76;86.88
62464;SHT31;48512;48.552;9.380;2024-01-30T05:00:42;0.68;87.27
62464;SHT31;48512;48.552;9.380;2024-01-30T05:03:08;0.63;87.45
62464;SHT31;48512;48.552;9.380;2024-01-30T05:05:35;0.62;87.34
62464;SHT31;48512;48.552;9.380;2024-01-30T05:08:01;0.60;87.30
62464;SHT31;48512;48.552;9.380;2024-01-30T05:10:27;0.60;87.30
62464;SHT31;48512;48.552;9.380;2024-01-30T05:12:54;0.63;87.57
62464;SHT31;48512;48.552;9.380;2024-01-30T05:15:20;0.69;87.78
62464;SHT31;48512;48.552;9.380;2024-01-30T05:17:46;0.73;87.69
62464;SHT31;48512;48.552;9.380;2024-01-30T05:20:12;0.81;87.42
62464;SHT31;48512;48.552;9.380;2024-01-30T05:22:39;0.89;87.28
62464;SHT31;48512;48.552;9.380;2024-01-30T05:25:14;0.93;87.18
62464;SHT31;48512;48.552;9.380;2024-01-30T05:27:40;0.96;87.08
62464;SHT31;48512;48.552;9.380;2024-01-30T05:30:07;1.03;86.95
62464;SHT31;48512;48.552;9.380;2024-01-30T05:32:33;1.09;86.74
62464;SHT31;48512;48.552;9.380;2024-01-30T05:34:59;1.08;86.76
62464;SHT31;48512;48.552;9.380;2024-01-30T05:37:25;1.14;86.73
62464;SHT31;48512;48.552;9.380;2024-01-30T05:39:51;1.23;86.73
62464;SHT31;48512;48.552;9.380;2024-01-30T05:42:18;1.17;86.81
62464;SHT31;48512;48.552;9.380;2024-01-30T05:44:44;1.21;86.66
62464;SHT31;48512;48.552;9.380;2024-01-30T05:47:10;1.17;86.83
62464;SHT31;48512;48.552;9.380;2024-01-30T05:49:36;1.20;86.78
62464;SHT31;48512;48.552;9.380;2024-01-30T05:52:03;1.23;86.79
62464;SHT31;48512;48.552;9.380;2024-01-30T05:54:29;1.24;86.74
62464;SHT31;48512;48.552;9.380;2024-01-30T05:56:55;1.24;86.77
62464;SHT31;48512;48.552;9.380;2024-01-30T05:59:22;1.16;86.95
62464;SHT31;48512;48.552;9.380;2024-01-30T06:01:48;1.13;87.08
62464;SHT31;48512;48.552;9.380;2024-01-30T06:04:15;1.07;87.22
62464;SHT31;48512;48.552;9.380;2024-01-30T06:06:41;1.07;87.33
62464;SHT31;48512;48.552;9.380;2024-01-30T06:09:07;1.08;87.57
62464;SHT31;48512;48.552;9.380;2024-01-30T06:11:35;1.07;87.48
62464;SHT31;48512;48.552;9.380;2024-01-30T06:14:01;1.04;87.57
62464;SHT31;48512;48.552;9.380;2024-01-30T06:16:27;1.08;87.44
62464;SHT31;48512;48.552;9.380;2024-01-30T06:18:56;1.05;87.52
62464;SHT31;48512;48.552;9.380;2024-01-30T06:21:23;1.09;87.48
62464;SHT31;48512;48.552;9.380;2024-01-30T06:23:49;1.08;87.46
62464;SHT31;48512;48.552;9.380;2024-01-30T06:26:15;1.04;87.36
62464;SHT31;48512;48.552;9.380;2024-01-30T06:28:41;1.07;87.44
62464;SHT31;48512;48.552;9.380;2024-01-30T06:31:07;0.96;87.33
62464;SHT31;48512;48.552;9.380;2024-01-30T06:33:33;1.03;87.30
62464;SHT31;48512;48.552;9.380;2024-01-30T06:36:00;0.96;87.29
62464;SHT31;48512;48.552;9.380;2024-01-30T06:38:26;0.93;87.38
62464;SHT31;48512;48.552;9.380;2024-01-30T06:40:52;0.86;87.55
62464;SHT31;48512;48.552;9.380;2024-01-30T06:43:18;0.89;87.52
62464;SHT31;48512;48.552;9.380;2024-01-30T06:45:44;0.93;87.42
62464;SHT31;48512;48.552;9.380;2024-01-30T06:48:10;0.97;87.29
62464;SHT31;48512;48.552;9.380;2024-01-30T06:50:36;1.05;87.18
62464;SHT31;48512;48.552;9.380;2024-01-30T06:53:02;1.05;86.98
62464;SHT31;48512;48.552;9.380;2024-01-30T06:55:29;1.09;86.96
62464;SHT31;48512;48.552;9.380;2024-01-30T06:57:55;1.08;87.03
62464;SHT31;48512;48.552;9.380;2024-01-30T07:00:21;1.11;87.01
62464;SHT31;48512;48.552;9.380;2024-01-30T07:02:48;1.14;87.13
62464;SHT31;48512;48.552;9.380;2024-01-30T07:05:14;1.14;87.16
62464;SHT31;48512;48.552;9.380;2024-01-30T07:07:41;1.21;87.18
62464;SHT31;48512;48.552;9.380;2024-01-30T07:10:07;1.16;87.20
62464;SHT31;48512;48.552;9.380;2024-01-30T07:12:33;1.17;87.24
62464;SHT31;48512;48.552;9.380;2024-01-30T07:15:00;1.24;87.17
62464;SHT31;48512;48.552;9.380;2024-01-30T07:17:26;1.20;87.45
62464;SHT31;48512;48.552;9.380;2024-01-30T07:19:52;1.27;87.41
62464;SHT31;48512;48.552;9.380;2024-01-30T07:22:18;1.21;87.38
62464;SHT31;48512;48.552;9.380;2024-01-30T07:24:45;1.24;87.40
62464;SHT31;48512;48.552;9.380;2024-01-30T07:27:13;1.21;87.58
62464;SHT31;48512;48.552;9.380;2024-01-30T07:29:39;1.24;87.55
62464;SHT31;48512;48.552;9.380;2024-01-30T07:32:05;1.27;87.44
62464;SHT31;48512;48.552;9.380;2024-01-30T07:34:31;1.23;87.53
62464;SHT31;48512;48.552;9.380;2024-01-30T07:36:58;1.25;87.70
62464;SHT31;48512;48.552;9.380;2024-01-30T07:39:24;1.32;87.58
62464;SHT31;48512;48.552;9.380;2024-01-30T07:41:50;1.35;87.44
62464;SHT31;48512;48.552;9.380;2024-01-30T07:44:16;1.35;86.82
62464;SHT31;48512;48.552;9.380;2024-01-30T07:46:42;1.39;86.77
62464;SHT31;48512;48.552;9.380;2024-01-30T07:49:08;1.39;86.65
62464;SHT31;48512;48.552;9.380;2024-01-30T07:51:34;1.49;86.74
62464;SHT31;48512;48.552;9.380;2024-01-30T07:54:00;1.54;86.66
62464;SHT31;48512;48.552;9.380;2024-01-30T07:56:26;1.62;86.61
62464;SHT31;48512;48.552;9.380;2024-01-30T07:58:52;1.66;86.63
62464;SHT31;48512;48.552;9.380;2024-01-30T08:01:19;1.76;86.36
62464;SHT31;48512;48.552;9.380;2024-01-30T08:03:45;1.75;86.47
62464;SHT31;48512;48.552;9.380;2024-01-30T08:06:11;1.82;86.44
62464;SHT31;48512;48.552;9.380;2024-01-30T08:08:37;1.86;86.42
62464;SHT31;48512;48.552;9.380;2024-01-30T08:11:04;2.02;86.23
62464;SHT31;48512;48.552;9.380;2024-01-30T08:13:30;2.04;86.44
62464;SHT31;48512;48.552;9.380;2024-01-30T08:15:56;2.11;86.25
62464;SHT31;48512;48.552;9.380;2024-01-30T08:18:31;2.25;86.10
62464;SHT31;48512;48.552;9.380;2024-01-30T08:20:57;2.42;85.68
62464;SHT31;48512;48.552;9.380;2024-01-30T08:23:24;2.55;85.56
62464;SHT31;48512;48.552;9.380;2024-01-30T08:25:50;2.65;85.25
62464;SHT31;48512;48.552;9.380;2024-01-30T08:28:16;2.76;84.98
62464;SHT31;48512;48.552;9.380;2024-01-30T08:30:43;2.86;84.84
62464;SHT31;48512;48.552;9.380;2024-01-30T08:33:09;3.07;84.32
62464;SHT31;48512;48.552;9.380;2024-01-30T08:35:36;3.30;83.83
62464;SHT31;48512;48.552;9.380;2024-01-30T08:38:05;3.48;83.36
62464;SHT31;48512;48.552;9.380;2024-01-30T08:40:31;3.71;82.97
62464;SHT31;48512;48.552;9.380;2024-01-30T08:42:57;3.99;82.02
62464;SHT31;48512;48.552;9.380;2024-01-30T08:45:23;4.27;80.80
62464;SHT31;48512;48.552;9.380;2024-01-30T08:47:50;4.47;80.97
62464;SHT31;48512;48.552;9.380;2024-01-30T08:50:16;4.72;80.54
62464;SHT31;48512;48.552;9.380;2024-01-30T08:52:42;4.90;80.74
62464;SHT31;48512;48.552;9.380;2024-01-30T08:55:08;5.06;80.73
62464;SHT31;48512;48.552;9.380;2024-01-30T08:57:35;5.28;77.59
62464;SHT31;48512;48.552;9.380;2024-01-30T09:00:01;5.55;77.41
62464;SHT31;48512;48.552;9.380;2024-01-30T09:02:33;5.66;76.13
62464;SHT31;48512;48.552;9.380;2024-01-30T09:05:00;5.92;75.92
62464;SHT31;48512;48.552;9.380;2024-01-30T09:07:26;6.14;73.40
62464;SHT31;48512;48.552;9.380;2024-01-30T09:09:52;6.50;71.65
62464;SHT31;48512;48.552;9.380;2024-01-30T09:12:18;6.85;71.72
62464;SHT31;48512;48.552;9.380;2024-01-30T09:14:44;7.06;69.38
62464;SHT31;48512;48.552;9.380;2024-01-30T09:17:10;7.29;69.56
62464;SHT31;48512;48.552;9.380;2024-01-30T09:19:36;7.50;68.43
62464;SHT31;48512;48.552;9.380;2024-01-30T09:22:03;7.70;67.07
62464;SHT31;48512;48.552;9.380;2024-01-30T09:24:29;7.99;61.61
62464;SHT31;48512;48.552;9.380;2024-01-30T09:26:55;8.43;58.87
62464;SHT31;48512;48.552;9.380;2024-01-30T09:29:21;8.67;61.26
62464;SHT31;48512;48.552;9.380;2024-01-30T09:31:48;8.81;60.66
62464;SHT31;48512;48.552;9.380;2024-01-30T09:34:14;9.08;59.91
62464;SHT31;48512;48.552;9.380;2024-01-30T09:36:40;9.26;59.20
62464;SHT31;48512;48.552;9.380;2024-01-30T09:39:06;9.35;62.40
62464;SHT31;48512;48.552;9.380;2024-01-30T09:44:20;9.49;60.73
62464;SHT31;48512;48.552;9.380;2024-01-30T09:46:47;9.60;62.39
62464;SHT31;48512;48.552;9.380;2024-01-30T09:49:16;9.69;62.69
62464;SHT31;48512;48.552;9.380;2024-01-30T09:51:44;9.81;63.70
62464;SHT31;48512;48.552;9.380;2024-01-30T09:54:13;10.21;62.99
62464;SHT31;48512;48.552;9.380;2024-01-30T09:56:39;10.36;63.68
62464;SHT31;48512;48.552;9.380;2024-01-30T09:59:06;10.46;63.08
62464;SHT31;48512;48.552;9.380;2024-01-30T10:01:34;10.49;62.06
62464;SHT31;48512;48.552;9.380;2024-01-30T10:04:00;10.45;62.53
62464;SHT31;48512;48.552;9.380;2024-01-30T10:06:27;10.48;57.51
62464;SHT31;48512;48.552;9.380;2024-01-30T10:08:53;10.43;56.77
62464;SHT31;48512;48.552;9.380;2024-01-30T10:11:20;10.49;57.90
62464;SHT31;48512;48.552;9.380;2024-01-30T10:13:46;10.52;59.68
62464;SHT31;48512;48.552;9.380;2024-01-30T10:16:14;10.50;60.72
62464;SHT31;48512;48.552;9.380;2024-01-30T10:18:41;10.43;61.71
62464;SHT31;48512;48.552;9.380;2024-01-30T10:21:08;10.39;62.97
62464;SHT31;48512;48.552;9.380;2024-01-30T10:23:35;10.35;63.82
62464;SHT31;48512;48.552;9.380;2024-01-30T10:26:04;10.39;63.85
62464;SHT31;48512;48.552;9.380;2024-01-30T10:28:30;10.42;63.81
62464;SHT31;48512;48.552;9.380;2024-01-30T10:31:02;10.50;62.29
62464;SHT31;48512;48.552;9.380;2024-01-30T10:33:31;10.57;60.72
62464;SHT31;48512;48.552;9.380;2024-01-30T10:36:01;10.67;61.19
62464;SHT31;48512;48.552;9.380;2024-01-30T10:38:29;10.63;61.19
62464;SHT31;48512;48.552;9.380;2024-01-30T10:40:59;10.66;62.30
62464;SHT31;48512;48.552;9.380;2024-01-30T10:43:35;10.71;63.34
62464;SHT31;48512;48.552;9.380;2024-01-30T10:46:18;10.62;64.51
62464;SHT31;48512;48.552;9.380;2024-01-30T10:48:53;10.56;64.45
62464;SHT31;48512;48.552;9.380;2024-01-30T10:51:22;10.46;64.43
62464;SHT31;48512;48.552;9.380;2024-01-30T10:53:49;10.43;64.42
62464;SHT31;48512;48.552;9.380;2024-01-30T10:56:16;10.43;65.58
62464;SHT31;48512;48.552;9.380;2024-01-30T10:58:42;10.48;65.53
62464;SHT31;48512;48.552;9.380;2024-01-30T11:01:09;10.55;66.16
62464;SHT31;48512;48.552;9.380;2024-01-30T11:03:35;10.59;64.39
62464;SHT31;48512;48.552;9.380;2024-01-30T11:06:02;10.69;63.39
62464;SHT31;48512;48.552;9.380;2024-01-30T11:08:32;10.80;63.60
62464;SHT31;48512;48.552;9.380;2024-01-30T11:10:58;10.98;63.30
62464;SHT31;48512;48.552;9.380;2024-01-30T11:13:29;11.15;63.95
62464;SHT31;48512;48.552;9.380;2024-01-30T11:15:55;11.34;63.95
62464;SHT31;48512;48.552;9.380;2024-01-30T11:18:39;11.39;63.76
62464;SHT31;48512;48.552;9.380;2024-01-30T11:21:06;11.49;64.01
62464;SHT31;48512;48.552;9.380;2024-01-30T11:23:33;11.61;60.42
62464;SHT31;48512;48.552;9.380;2024-01-30T11:26:00;11.76;56.51
62464;SHT31;48512;48.552;9.380;2024-01-30T11:28:33;11.97;50.04
62464;SHT31;48512;48.552;9.380;2024-01-30T11:31:04;12.13;51.87
62464;SHT31;48512;48.552;9.380;2024-01-30T11:33:30;12.25;48.40
62464;SHT31;48512;48.552;9.380;2024-01-30T11:35:58;12.42;48.22
62464;SHT31;48512;48.552;9.380;2024-01-30T11:38:28;12.53;46.90
62464;SHT31;48512;48.552;9.380;2024-01-30T11:40:54;12.65;46.81
62464;SHT31;48512;48.552;9.380;2024-01-30T11:43:22;12.65;45.62
62464;SHT31;48512;48.552;9.380;2024-01-30T11:45:48;12.73;45.68
62464;SHT31;48512;48.552;9.380;2024-01-30T11:48:14;12.78;47.12
62464;SHT31;48512;48.552;9.380;2024-01-30T11:50:41;12.73;47.81
62464;SHT31;48512;48.552;9.380;2024-01-30T11:53:07;12.69;49.70
62464;SHT31;48512;48.552;9.380;2024-01-30T11:55:33;12.68;48.64
62464;SHT31;48512;48.552;9.380;2024-01-30T11:58:01;12.70;49.27
62464;SHT31;48512;48.552;9.380;2024-01-30T12:00:28;12.69;48.01
62464;SHT31;48512;48.552;9.380;2024-01-30T12:02:56;12.70;47.89
62464;SHT31;48512;48.552;9.380;2024-01-30T12:05:23;12.72;47.89
62464;SHT31;48512;48.552;9.380;2024-01-30T12:07:50;12.72;47.42
62464;SHT31;48512;48.552;9.380;2024-01-30T12:10:16;12.72;47.00
62464;SHT31;48512;48.552;9.380;2024-01-30T12:12:46;12.88;47.29
62464;SHT31;48512;48.552;9.380;2024-01-30T12:15:13;12.88;46.51
62464;SHT31;48512;48.552;9.380;2024-01-30T12:17:40;12.97;46.57
62464;SHT31;48512;48.552;9.380;2024-01-30T12:20:14;13.02;46.71
62464;SHT31;48512;48.552;9.380;2024-01-30T12:22:45;13.07;47.18
62464;SHT31;48512;48.552;9.380;2024-01-30T12:25:21;13.13;47.38
62464;SHT31;48512;48.552;9.380;2024-01-30T12:27:50;13.10;47.31
62464;SHT31;48512;48.552;9.380;2024-01-30T12:30:17;13.07;47.22
62464;SHT31;48512;48.552;9.380;2024-01-30T12:32:46;13.06;46.87
62464;SHT31;48512;48.552;9.380;2024-01-30T12:35:17;12.92;47.04
62464;SHT31;48512;48.552;9.380;2024-01-30T12:37:45;12.97;47.60
62464;SHT31;48512;48.552;9.380;2024-01-30T12:40:13;12.95;47.51
62464;SHT31;48512;48.552;9.380;2024-01-30T12:42:41;12.90;47.44
62464;SHT31;48512;48.552;9.380;2024-01-30T12:45:08;12.95;48.04
62464;SHT31;48512;48.552;9.380;2024-01-30T12:47:35;13.03;48.67
62464;SHT31;48512;48.552;9.380;2024-01-30T12:50:01;13.07;48.21
62464;SHT31;48512;48.552;9.380;2024-01-30T12:52:28;13.13;49.07
62464;SHT31;48512;48.552;9.380;2024-01-30T12:54:54;13.16;48.39
62464;SHT31;48512;48.552;9.380;2024-01-30T12:57:21;13.30;47.42
62464;SHT31;48512;48.552;9.380;2024-01-30T12:59:47;13.38;48.23
62464;SHT31;48512;48.552;9.380;2024-01-30T13:02:13;14.09;67.88
62464;SHT31;48512;48.552;9.380;2024-01-30T13:04:40;14.88;60.02
62464;SHT31;48512;48.552;9.380;2024-01-30T13:07:07;15.46;58.30
62464;SHT31;48512;48.552;9.380;2024-01-30T13:09:33;16.05;55.01
62464;SHT31;48512;48.552;9.380;2024-01-30T13:11:59;16.25;45.31
62464;SHT31;48512;48.552;9.380;2024-01-30T13:14:28;16.97;49.89
62464;SHT31;48512;48.552;9.380;2024-01-30T13:16:54;17.42;49.89
62464;SHT31;48512;48.552;9.380;2024-01-30T13:19:20;17.28;47.90
62464;SHT31;48512;48.552;9.380;2024-01-30T13:21:46;16.98;45.99
62464;SHT31;48512;48.552;9.380;2024-01-30T13:24:14;16.84;46.39
62464;SHT31;48512;48.552;9.380;2024-01-30T13:26:42;17.01;49.44
62464;SHT31;48512;48.552;9.380;2024-01-30T13:29:08;17.07;49.49
62464;SHT31;48512;48.552;9.380;2024-01-30T13:31:34;17.14;49.58
62464;SHT31;48512;48.552;9.380;2024-01-30T13:34:01;17.26;47.03
62464;SHT31;48512;48.552;9.380;2024-01-30T13:36:27;17.15;48.16
62464;SHT31;48512;48.552;9.380;2024-01-30T13:38:53;17.10;49.00
62464;SHT31;48512;48.552;9.380;2024-01-30T13:41:20;17.16;48.98
62464;SHT31;48512;48.552;9.380;2024-01-30T13:43:47;16.91;43.34
62464;SHT31;48512;48.552;9.380;2024-01-30T13:46:13;16.78;47.26
62464;SHT31;48512;48.552;9.380;2024-01-30T13:48:39;16.43;47.21
62464;SHT31;48512;48.552;9.380;2024-01-30T13:51:05;16.22;44.58
62464;SHT31;48512;48.552;9.380;2024-01-30T13:53:32;15.87;44.12
62464;SHT31;48512;48.552;9.380;2024-01-30T13:55:58;15.13;45.39
62464;SHT31;48512;48.552;9.380;2024-01-30T13:58:24;14.88;45.95
62464;SHT31;48512;48.552;9.380;2024-01-30T14:00:50;14.61;46.40
62464;SHT31;48512;48.552;9.380;2024-01-30T14:03:16;14.45;47.36
62464;SHT31;48512;48.552;9.380;2024-01-30T14:05:42;14.36;47.97
62464;SHT31;48512;48.552;9.380;2024-01-30T14:08:09;14.20;48.68
62464;SHT31;48512;48.552;9.380;2024-01-30T14:10:36;14.10;47.87
62464;SHT31;48512;48.552;9.380;2024-01-30T14:13:02;14.03;49.23
62464;SHT31;48512;48.552;9.380;2024-01-30T14:15:28;13.99;48.64
62464;SHT31;48512;48.552;9.380;2024-01-30T14:17:54;13.76;48.28
62464;SHT31;48512;48.552;9.380;2024-01-30T14:20:21;13.93;48.38
62464;SHT31;48512;48.552;9.380;2024-01-30T14:22:47;14.02;48.13
62464;SHT31;48512;48.552;9.380;2024-01-30T14:25:13;13.83;47.98
62464;SHT31;48512;48.552;9.380;2024-01-30T14:27:39;13.79;48.55
62464;SHT31;48512;48.552;9.380;2024-01-30T14:30:06;13.76;48.65
62464;SHT31;48512;48.552;9.380;2024-01-30T14:32:33;13.72;49.43
62464;SHT31;48512;48.552;9.380;2024-01-30T14:35:00;13.65;48.99
62464;SHT31;48512;48.552;9.380;2024-01-30T14:37:27;13.61;49.33
62464;SHT31;48512;48.552;9.380;2024-01-30T14:39:55;13.62;50.50
62464;SHT31;48512;48.552;9.380;2024-01-30T14:42:22;13.61;49.92
62464;SHT31;48512;48.552;9.380;2024-01-30T14:44:48;13.55;49.80
62464;SHT31;48512;48.552;9.380;2024-01-30T14:47:15;13.66;49.29
62464;SHT31;48512;48.552;9.380;2024-01-30T14:49:41;13.82;48.92
62464;SHT31;48512;48.552;9.380;2024-01-30T14:52:07;13.90;48.85
62464;SHT31;48512;48.552;9.380;2024-01-30T14:54:36;13.82;48.58
62464;SHT31;48512;48.552;9.380;2024-01-30T14:57:03;13.66;49.46
62464;SHT31;48512;48.552;9.380;2024-01-30T14:59:30;13.53;48.91
62464;SHT31;48512;48.552;9.380;2024-01-30T15:01:57;13.48;50.17
62464;SHT31;48512;48.552;9.380;2024-01-30T15:04:23;13.36;50.40
62464;SHT31;48512;48.552;9.380;2024-01-30T15:06:50;13.18;49.56
62464;SHT31;48512;48.552;9.380;2024-01-30T15:09:17;13.21;49.78
62464;SHT31;48512;48.552;9.380;2024-01-30T15:11:46;13.09;50.01
62464;SHT31;48512;48.552;9.380;2024-01-30T15:14:14;13.06;49.92
62464;SHT31;48512;48.552;9.380;2024-01-30T15:16:41;12.99;50.21
62464;SHT31;48512;48.552;9.380;2024-01-30T15:19:08;12.95;51.50
62464;SHT31;48512;48.552;9.380;2024-01-30T15:21:34;12.90;51.42
62464;SHT31;48512;48.552;9.380;2024-01-30T15:24:02;12.83;52.52
62464;SHT31;48512;48.552;9.380;2024-01-30T15:26:29;12.75;52.05
62464;SHT31;48512;48.552;9.380;2024-01-30T15:28:56;12.66;53.29
62464;SHT31;48512;48.552;9.380;2024-01-30T15:31:22;12.59;53.83
62464;SHT31;48512;48.552;9.380;2024-01-30T15:33:49;12.52;54.05
62464;SHT31;48512;48.552;9.380;2024-01-30T15:36:15;12.45;54.57
62464;SHT31;48512;48.552;9.380;2024-01-30T15:38:42;12.41;54.59